createdAt,value
2022-10-19T00:01:15.160Z,78.17
2022-10-19T00:03:46.745Z,77.76
2022-10-19T00:06:16.190Z,76.63
2022-10-19T00:08:45.063Z,76.20
2022-10-19T00:11:13.983Z,76.24
2022-10-19T00:13:41.681Z,76.71
2022-10-19T00:16:11.651Z,76.33
2022-10-19T00:18:40.063Z,76.06
2022-10-19T00:21:08.897Z,76.71
2022-10-19T00:23:36.853Z,76.97
2022-10-19T00:26:04.743Z,77.17
2022-10-19T00:28:34.060Z,77.70
2022-10-19T00:31:04.046Z,78.59
2022-10-19T00:33:31.923Z,78.54
2022-10-19T00:35:59.259Z,78.12
2022-10-19T00:38:27.919Z,78.93
2022-10-19T00:40:55.379Z,79.85
2022-10-19T00:43:26.273Z,80.06
2022-10-19T00:45:54.962Z,80.24
2022-10-19T00:48:26.223Z,81.35
2022-10-19T00:50:58.510Z,81.56
2022-10-19T00:53:28.622Z,82.20
2022-10-19T00:55:57.436Z,82.56
2022-10-19T00:58:25.094Z,83.28
2022-10-19T01:00:54.391Z,83.50
2022-10-19T01:03:22.044Z,83.80
2022-10-19T01:05:49.844Z,83.32
2022-10-19T01:08:17.894Z,82.70
2022-10-19T01:10:52.998Z,82.56
2022-10-19T01:13:36.305Z,82.70
2022-10-19T01:16:12.225Z,82.47
2022-10-19T01:18:49.555Z,83.20
2022-10-19T01:21:23.303Z,83.43
2022-10-19T01:24:22.291Z,82.65
2022-10-19T01:27:23.197Z,82.19
2022-10-19T01:30:02.866Z,82.65
2022-10-19T01:32:40.538Z,83.21
2022-10-19T01:35:12.217Z,82.42
2022-10-19T01:37:47.050Z,82.15
2022-10-19T01:40:22.052Z,82.53
2022-10-19T01:42:57.369Z,82.27
2022-10-19T01:45:31.646Z,82.30
2022-10-19T01:48:02.824Z,81.68
2022-10-19T01:50:36.214Z,82.07
2022-10-19T01:53:06.095Z,81.13
2022-10-19T01:55:34.329Z,81.23
2022-10-19T01:58:08.286Z,81.28
2022-10-19T02:00:42.428Z,80.99
2022-10-19T02:03:12.284Z,81.60
2022-10-19T02:05:41.809Z,81.95
2022-10-19T02:08:14.960Z,82.23
2022-10-19T02:10:44.548Z,82.37
2022-10-19T02:13:14.000Z,82.76
2022-10-19T02:15:47.614Z,82.94
2022-10-19T02:18:20.645Z,83.66
2022-10-19T02:20:48.370Z,83.97
2022-10-19T02:23:20.395Z,84.08
2022-10-19T02:25:48.444Z,84.82
2022-10-19T02:28:16.268Z,85.17
2022-10-19T02:30:45.370Z,84.67
2022-10-19T02:33:12.966Z,83.24
2022-10-19T02:35:40.848Z,83.62
2022-10-19T02:38:11.418Z,83.78
2022-10-19T02:40:43.496Z,83.63
2022-10-19T02:43:14.167Z,83.32
2022-10-19T02:45:49.106Z,83.28
2022-10-19T02:48:21.606Z,83.47
2022-10-19T02:50:49.260Z,83.11
2022-10-19T02:53:16.980Z,83.34
2022-10-19T02:55:47.376Z,82.76
2022-10-19T02:58:14.852Z,83.01
2022-10-19T03:00:42.603Z,82.88
2022-10-19T03:03:11.489Z,82.13
2022-10-19T03:05:39.328Z,81.93
2022-10-19T03:08:06.766Z,81.88
2022-10-19T03:10:34.569Z,81.87
2022-10-19T03:13:01.976Z,82.15
2022-10-19T03:15:29.664Z,82.17
2022-10-19T03:17:57.520Z,82.69
2022-10-19T03:20:26.558Z,83.06
2022-10-19T03:25:21.430Z,84.02
2022-10-19T03:27:48.750Z,84.31
2022-10-19T03:30:16.579Z,83.71
2022-10-19T03:32:44.022Z,83.93
2022-10-19T03:35:11.698Z,84.05
2022-10-19T03:37:40.356Z,83.62
2022-10-19T03:40:09.166Z,83.83
2022-10-19T03:42:36.491Z,84.13
2022-10-19T03:45:04.684Z,83.88
2022-10-19T03:47:32.236Z,84.09
2022-10-19T03:50:00.321Z,84.99
2022-10-19T03:52:27.569Z,84.66
2022-10-19T03:54:56.625Z,84.40
2022-10-19T03:57:23.907Z,85.07
2022-10-19T03:59:51.938Z,85.49
2022-10-19T04:02:19.333Z,85.65
2022-10-19T04:04:47.208Z,84.97
2022-10-19T04:07:14.386Z,84.74
2022-10-19T04:09:42.192Z,85.23
2022-10-19T04:12:11.122Z,84.35
2022-10-19T04:14:56.227Z,84.58
2022-10-19T04:17:26.291Z,84.70
2022-10-19T04:19:54.038Z,85.20
2022-10-19T04:22:21.321Z,85.35
2022-10-19T04:24:49.273Z,84.55
2022-10-19T04:27:18.413Z,84.54
2022-10-19T04:29:46.103Z,84.19
2022-10-19T04:32:13.521Z,84.70
2022-10-19T04:34:41.280Z,85.10
2022-10-19T04:37:08.734Z,84.79
2022-10-19T04:39:36.377Z,84.78
2022-10-19T04:42:03.789Z,83.97
2022-10-19T04:44:33.079Z,83.80
2022-10-19T04:47:00.991Z,83.72
2022-10-19T04:49:28.910Z,83.52
2022-10-19T04:51:56.383Z,83.48
2022-10-19T04:54:24.257Z,84.03
2022-10-19T04:56:51.862Z,83.95
2022-10-19T04:59:19.865Z,83.41
2022-10-19T05:01:48.677Z,82.48
2022-10-19T05:04:16.891Z,82.84
2022-10-19T05:06:44.411Z,81.41
2022-10-19T05:09:12.258Z,81.23
2022-10-19T05:11:39.724Z,81.66
2022-10-19T05:14:07.596Z,81.45
2022-10-19T05:16:34.905Z,80.91
2022-10-19T05:19:04.403Z,80.25
2022-10-19T05:21:31.813Z,80.42
2022-10-19T05:23:59.584Z,80.17
2022-10-19T05:26:28.543Z,80.73
2022-10-19T05:28:57.987Z,80.97
2022-10-19T05:31:27.700Z,80.52
2022-10-19T05:33:56.041Z,80.69
2022-10-19T05:36:26.350Z,80.45
2022-10-19T05:38:55.628Z,81.49
2022-10-19T05:41:24.272Z,80.92
2022-10-19T05:43:54.596Z,80.21
2022-10-19T05:46:22.419Z,80.08
2022-10-19T05:48:50.284Z,80.87
2022-10-19T05:51:19.453Z,81.02
2022-10-19T05:53:49.237Z,81.33
2022-10-19T05:56:20.850Z,81.63
2022-10-19T05:58:49.357Z,81.15
2022-10-19T06:01:17.742Z,80.86
2022-10-19T06:03:46.190Z,80.66
2022-10-19T06:06:13.792Z,81.01
2022-10-19T06:08:41.628Z,80.72
2022-10-19T06:11:12.497Z,80.38
2022-10-19T06:13:41.731Z,80.66
2022-10-19T06:16:10.520Z,80.07
2022-10-19T06:18:38.518Z,80.01
2022-10-19T06:21:08.023Z,80.74
2022-10-19T06:23:36.421Z,80.52
2022-10-19T06:26:06.776Z,79.78
2022-10-19T06:28:37.050Z,80.27
2022-10-19T06:31:07.160Z,79.89
2022-10-19T06:33:39.156Z,79.69
2022-10-19T06:36:07.011Z,79.88
2022-10-19T06:38:34.660Z,79.74
2022-10-19T06:41:02.382Z,79.87
2022-10-19T06:43:30.518Z,79.53
2022-10-19T06:45:59.610Z,79.47
2022-10-19T06:48:27.893Z,79.55
2022-10-19T06:50:59.270Z,78.68
2022-10-19T06:53:28.292Z,78.85
2022-10-19T06:55:57.856Z,79.76
2022-10-19T06:58:26.076Z,78.88
2022-10-19T07:00:57.303Z,79.18
2022-10-19T07:03:27.052Z,78.54
2022-10-19T07:05:55.861Z,78.35
2022-10-19T07:08:24.558Z,78.51
2022-10-19T07:10:52.314Z,79.18
2022-10-19T07:13:20.660Z,78.49
2022-10-19T07:15:48.167Z,78.84
2022-10-19T07:18:16.361Z,78.85
2022-10-19T07:20:54.621Z,78.04
2022-10-19T07:23:22.337Z,78.93
2022-10-19T07:25:49.685Z,78.14
2022-10-19T07:28:17.449Z,78.00
2022-10-19T07:30:44.848Z,77.90
2022-10-19T07:33:12.773Z,77.54
2022-10-19T07:35:40.128Z,76.83
2022-10-19T07:38:09.413Z,76.19
2022-10-19T07:40:37.134Z,77.04
2022-10-19T07:43:05.089Z,77.16
2022-10-19T07:45:33.113Z,76.39
2022-10-19T07:48:00.692Z,77.04
2022-10-19T07:50:27.898Z,76.79
2022-10-19T07:52:55.693Z,76.46
2022-10-19T07:55:24.371Z,76.27
2022-10-19T07:57:51.945Z,75.00
2022-10-19T08:00:19.437Z,75.34
2022-10-19T08:03:04.948Z,76.25
2022-10-19T08:05:35.123Z,75.25
2022-10-19T08:08:03.447Z,75.15
2022-10-19T08:10:32.472Z,75.52
2022-10-19T08:13:00.160Z,74.36
2022-10-19T08:15:29.853Z,74.59
2022-10-19T08:17:57.751Z,74.56
2022-10-19T08:20:25.106Z,73.88
2022-10-19T08:22:56.459Z,73.31
2022-10-19T08:25:26.749Z,72.54
2022-10-19T08:27:55.779Z,73.01
2022-10-19T08:30:23.118Z,72.35
2022-10-19T08:32:50.749Z,72.54
2022-10-19T08:35:18.495Z,73.34
2022-10-19T08:37:46.580Z,71.98
2022-10-19T08:40:18.997Z,73.09
2022-10-19T08:42:55.565Z,71.88
2022-10-19T08:48:25.404Z,72.53
2022-10-19T08:50:52.665Z,72.62
2022-10-19T08:53:27.144Z,71.10
2022-10-19T08:56:04.946Z,72.42
2022-10-19T08:58:46.466Z,71.70
2022-10-19T09:01:26.391Z,71.31
2022-10-19T09:04:01.256Z,71.01
2022-10-19T09:06:35.100Z,70.19
2022-10-19T09:09:03.531Z,69.83
2022-10-19T09:11:35.637Z,69.47
2022-10-19T09:14:11.006Z,70.13
2022-10-19T09:16:40.163Z,69.67
2022-10-19T09:19:15.542Z,70.03
2022-10-19T09:21:48.854Z,69.39
2022-10-19T09:24:29.123Z,69.20
2022-10-19T09:26:58.877Z,69.99
2022-10-19T09:29:31.789Z,70.45
2022-10-19T09:32:04.173Z,69.31
2022-10-19T09:34:36.788Z,68.86
2022-10-19T09:37:03.848Z,69.80
2022-10-19T09:39:32.098Z,70.14
2022-10-19T09:42:16.530Z,68.91
2022-10-19T09:44:50.181Z,69.34
2022-10-19T09:47:32.025Z,69.43
2022-10-19T09:50:16.617Z,69.13
2022-10-19T09:52:45.393Z,68.13
2022-10-19T09:55:36.121Z,67.92
2022-10-19T09:58:06.092Z,68.26
2022-10-19T10:00:36.803Z,67.41
2022-10-19T10:03:06.735Z,66.74
2022-10-19T10:05:36.059Z,67.21
2022-10-19T10:08:04.072Z,67.36
2022-10-19T10:10:38.035Z,67.14
2022-10-19T10:13:06.141Z,66.06
2022-10-19T10:15:43.709Z,66.22
2022-10-19T10:18:16.873Z,66.78
2022-10-19T10:20:58.620Z,66.56
2022-10-19T10:23:30.475Z,66.48
2022-10-19T10:25:58.742Z,64.11
2022-10-19T10:28:27.372Z,64.42
2022-10-19T10:30:59.794Z,63.78
2022-10-19T10:33:45.867Z,64.44
2022-10-19T10:36:14.647Z,65.06
2022-10-19T10:38:46.547Z,65.18
2022-10-19T10:41:16.429Z,64.76
2022-10-19T10:46:23.828Z,66.37
2022-10-19T10:48:58.456Z,64.86
2022-10-19T10:51:33.364Z,65.39
2022-10-19T10:54:15.685Z,65.52
2022-10-19T10:57:10.898Z,64.80
2022-10-19T10:59:45.759Z,63.98
2022-10-19T11:05:01.869Z,62.00
2022-10-19T11:07:32.875Z,58.85
2022-10-19T11:10:06.697Z,59.39
2022-10-19T11:12:40.033Z,58.67
2022-10-19T11:15:17.366Z,57.87
2022-10-19T11:17:56.920Z,59.37
2022-10-19T11:20:30.159Z,57.70
2022-10-19T11:23:07.152Z,57.79
2022-10-19T11:25:45.572Z,60.01
2022-10-19T11:28:29.615Z,59.93
2022-10-19T11:31:04.538Z,60.11
2022-10-19T11:33:44.735Z,60.74
2022-10-19T11:36:28.811Z,60.67
2022-10-19T11:39:13.554Z,61.85
2022-10-19T11:41:50.709Z,61.91
2022-10-19T11:44:28.922Z,61.69
2022-10-19T11:47:11.625Z,63.59
2022-10-19T11:49:54.468Z,63.41
2022-10-19T11:52:34.193Z,64.01
2022-10-19T11:55:14.017Z,64.25
2022-10-19T11:57:48.753Z,65.43
2022-10-19T12:00:37.733Z,66.15
2022-10-19T12:03:38.832Z,66.44
2022-10-19T12:06:12.297Z,67.32
2022-10-19T12:08:58.173Z,66.90
2022-10-19T12:11:36.742Z,68.21
2022-10-19T12:14:10.948Z,66.42
2022-10-19T12:16:44.410Z,68.05
2022-10-19T12:19:19.496Z,67.72
2022-10-19T12:21:48.734Z,67.79
2022-10-19T12:24:20.376Z,68.17
2022-10-19T12:26:49.456Z,67.71
2022-10-19T12:29:20.545Z,67.79
2022-10-19T12:31:49.083Z,68.05
2022-10-19T12:34:26.979Z,67.69
2022-10-19T12:36:59.055Z,67.97
2022-10-19T12:39:35.022Z,69.30
2022-10-19T12:42:14.731Z,68.78
2022-10-19T12:45:10.257Z,68.45
2022-10-19T12:47:38.123Z,68.39
2022-10-19T12:50:06.166Z,68.33
2022-10-19T12:52:38.344Z,67.81
2022-10-19T12:55:29.616Z,68.13
2022-10-19T12:58:01.755Z,69.32
2022-10-19T13:00:31.205Z,68.41
2022-10-19T13:03:03.032Z,67.85
2022-10-19T13:05:32.395Z,67.85
2022-10-19T13:08:02.535Z,67.13
2022-10-19T13:10:33.266Z,68.17
2022-10-19T13:13:02.015Z,68.72
2022-10-19T13:15:56.956Z,69.02
2022-10-19T13:19:01.643Z,68.68
2022-10-19T13:21:50.666Z,69.16
2022-10-19T13:24:33.133Z,69.20
2022-10-19T13:27:25.819Z,68.34
2022-10-19T13:29:53.975Z,68.21
2022-10-19T13:32:40.896Z,68.06
2022-10-19T13:35:33.434Z,68.60
2022-10-19T13:38:31.239Z,69.52
2022-10-19T13:41:05.493Z,71.08
2022-10-19T13:43:39.920Z,71.47
2022-10-19T13:46:14.240Z,71.97
2022-10-19T13:49:13.640Z,72.22
2022-10-19T13:51:50.245Z,72.36
2022-10-19T13:54:38.175Z,71.39
2022-10-19T13:57:18.180Z,71.78
2022-10-19T14:00:05.450Z,71.31
2022-10-19T14:03:16.652Z,71.09
2022-10-19T14:06:22.271Z,70.40
2022-10-19T14:09:25.838Z,70.09
2022-10-19T14:11:54.524Z,69.53
2022-10-19T14:14:24.497Z,69.66
2022-10-19T14:16:59.763Z,69.49
2022-10-19T14:19:33.299Z,68.42
2022-10-19T14:22:17.264Z,67.94
2022-10-19T14:24:45.100Z,68.32
2022-10-19T14:27:19.426Z,67.59
2022-10-19T14:29:49.595Z,65.53
2022-10-19T14:32:22.415Z,67.30
2022-10-19T14:34:50.629Z,67.45
2022-10-19T14:37:20.281Z,66.46
2022-10-19T14:40:02.357Z,66.05
2022-10-19T14:42:38.043Z,65.86
2022-10-19T14:45:12.431Z,65.24
2022-10-19T14:47:53.669Z,65.97
2022-10-19T14:53:33.977Z,64.08
2022-10-19T14:56:06.771Z,65.38
2022-10-19T14:58:36.965Z,66.32
2022-10-19T15:01:05.810Z,65.39
2022-10-19T15:03:34.836Z,66.94
2022-10-19T15:06:06.087Z,67.43
2022-10-19T15:08:37.813Z,68.00
2022-10-19T15:11:07.195Z,67.75
2022-10-19T15:13:40.403Z,67.57
2022-10-19T15:16:29.703Z,67.90
2022-10-19T15:19:03.971Z,68.23
2022-10-19T15:21:33.517Z,68.07
2022-10-19T15:24:15.699Z,68.21
2022-10-19T15:27:01.720Z,68.24
2022-10-19T15:29:36.256Z,68.41
2022-10-19T15:32:15.506Z,69.51
2022-10-19T15:34:45.942Z,69.91
2022-10-19T15:37:19.996Z,70.21
2022-10-19T15:39:48.219Z,70.65
2022-10-19T15:42:34.099Z,70.26
2022-10-19T15:45:02.500Z,69.97
2022-10-19T15:47:30.418Z,70.27
2022-10-19T15:50:01.045Z,70.68
2022-10-19T15:52:29.942Z,70.33
2022-10-19T15:54:58.806Z,70.18
2022-10-19T15:57:30.553Z,70.23
2022-10-19T16:00:00.232Z,70.42
2022-10-19T16:02:28.092Z,69.74
2022-10-19T16:04:55.776Z,69.47
2022-10-19T16:07:29.464Z,70.30
2022-10-19T16:09:57.307Z,70.00
2022-10-19T16:12:26.414Z,69.97
2022-10-19T16:14:54.474Z,69.91
2022-10-19T16:17:22.530Z,70.41
2022-10-19T16:19:50.207Z,70.70
2022-10-19T16:22:20.777Z,71.07
2022-10-19T16:24:49.540Z,70.66
2022-10-19T16:27:17.801Z,70.65
2022-10-19T16:29:45.230Z,70.73
2022-10-19T16:32:13.092Z,71.26
2022-10-19T16:34:40.597Z,71.37
2022-10-19T16:37:08.560Z,71.38
2022-10-19T16:39:35.945Z,71.76
2022-10-19T16:42:05.107Z,71.67
2022-10-19T16:44:32.732Z,72.04
2022-10-19T16:47:00.385Z,72.46
2022-10-19T16:49:27.998Z,72.56
2022-10-19T16:51:57.460Z,72.57
2022-10-19T16:54:28.897Z,73.15
2022-10-19T16:56:56.679Z,73.07
2022-10-19T16:59:25.329Z,73.27
2022-10-19T17:01:53.031Z,73.53
2022-10-19T17:04:20.458Z,73.31
2022-10-19T17:06:48.469Z,73.84
2022-10-19T17:09:41.319Z,73.31
2022-10-19T17:12:05.626Z,73.86
2022-10-19T17:14:35.478Z,73.96
2022-10-19T17:17:03.491Z,73.94
2022-10-19T17:19:33.550Z,73.62
2022-10-19T17:22:01.391Z,74.06
2022-10-19T17:24:28.882Z,73.21
2022-10-19T17:26:56.656Z,74.17
2022-10-19T17:29:24.494Z,74.32
2022-10-19T17:31:53.614Z,74.24
2022-10-19T17:34:20.942Z,73.00
2022-10-19T17:36:49.053Z,72.37
2022-10-19T17:39:19.063Z,72.51
2022-10-19T17:41:51.715Z,71.85
2022-10-19T17:44:19.870Z,71.46
2022-10-19T17:46:48.306Z,71.31
2022-10-19T17:49:17.935Z,71.67
2022-10-19T17:51:45.778Z,71.44
2022-10-19T17:54:14.588Z,72.19
2022-10-19T17:56:42.992Z,72.70
2022-10-19T17:59:10.620Z,72.33
2022-10-19T18:01:38.708Z,72.39
2022-10-19T18:04:06.816Z,72.45
2022-10-19T18:06:37.418Z,73.41
2022-10-19T18:09:08.027Z,73.03
2022-10-19T18:11:37.519Z,73.07
2022-10-19T18:14:06.420Z,73.09
2022-10-19T18:16:36.197Z,72.88
2022-10-19T18:19:04.992Z,72.86
2022-10-19T18:21:37.561Z,72.40
2022-10-19T18:24:09.070Z,72.13
2022-10-19T18:26:39.965Z,71.85
2022-10-19T18:29:11.389Z,71.33
2022-10-19T18:31:40.022Z,70.77
2022-10-19T18:34:13.098Z,70.84
2022-10-19T18:36:43.629Z,70.41
2022-10-19T18:39:13.901Z,71.12
2022-10-19T18:41:42.532Z,71.33
2022-10-19T18:44:13.334Z,71.00
2022-10-19T18:46:41.670Z,71.16
2022-10-19T18:49:10.514Z,69.63
2022-10-19T18:51:39.227Z,69.47
2022-10-19T18:54:08.650Z,69.70
2022-10-19T18:56:36.579Z,69.30
2022-10-19T18:59:04.431Z,67.96
2022-10-19T19:01:32.584Z,68.49
2022-10-19T19:04:07.157Z,70.62
2022-10-19T19:06:36.802Z,71.92
2022-10-19T19:09:08.217Z,70.90
2022-10-19T19:11:37.743Z,71.38
2022-10-19T19:14:07.709Z,71.97
2022-10-19T19:16:36.967Z,73.22
2022-10-19T19:19:04.874Z,74.31
2022-10-19T19:21:33.229Z,74.61
2022-10-19T19:24:03.058Z,75.47
2022-10-19T19:26:34.506Z,74.88
2022-10-19T19:29:01.851Z,75.31
2022-10-19T19:31:29.757Z,74.39
2022-10-19T19:34:00.030Z,73.93
2022-10-19T19:36:28.893Z,73.39
2022-10-19T19:38:57.325Z,73.86
2022-10-19T19:41:25.401Z,75.24
2022-10-19T19:43:55.566Z,75.50
2022-10-19T19:46:23.504Z,75.58
2022-10-19T19:48:51.188Z,76.45
2022-10-19T19:51:21.004Z,76.89
2022-10-19T19:53:48.741Z,77.32
2022-10-19T19:56:16.988Z,76.28
2022-10-19T19:58:45.580Z,75.49
2022-10-19T20:01:17.360Z,74.83
2022-10-19T20:03:45.429Z,74.41
2022-10-19T20:06:14.231Z,74.00
2022-10-19T20:08:41.837Z,73.12
2022-10-19T20:11:12.224Z,72.81
2022-10-19T20:13:40.086Z,73.25
2022-10-19T20:16:08.931Z,74.33
2022-10-19T20:18:37.699Z,73.69
2022-10-19T20:21:05.900Z,73.14
2022-10-19T20:23:33.567Z,74.15
2022-10-19T20:26:01.636Z,73.58
2022-10-19T20:28:31.782Z,73.19
2022-10-19T20:31:00.912Z,72.51
2022-10-19T20:33:30.392Z,71.68
2022-10-19T20:36:03.285Z,71.55
2022-10-19T20:38:30.530Z,70.29
2022-10-19T20:40:58.365Z,69.25
2022-10-19T20:43:25.803Z,68.50
2022-10-19T20:45:53.482Z,69.17
2022-10-19T20:48:20.775Z,67.04
2022-10-19T20:50:48.778Z,69.01
2022-10-19T20:53:17.527Z,70.99
2022-10-19T20:55:45.331Z,70.79
2022-10-19T20:58:12.672Z,67.58
2022-10-19T21:00:40.667Z,67.54
2022-10-19T21:03:07.986Z,67.82
2022-10-19T21:05:38.354Z,67.90
2022-10-19T21:08:05.780Z,66.93
2022-10-19T21:10:34.950Z,68.15
2022-10-19T21:13:02.266Z,67.83
2022-10-19T21:15:29.799Z,67.26
2022-10-19T21:17:57.115Z,68.43
2022-10-19T21:20:24.944Z,70.07
2022-10-19T21:22:52.047Z,72.72
2022-10-19T21:25:19.816Z,71.73
2022-10-19T21:27:51.612Z,69.88
2022-10-19T21:30:19.106Z,70.15
2022-10-19T21:32:47.956Z,68.44
2022-10-19T21:35:16.258Z,68.89
2022-10-19T21:37:43.730Z,69.40
2022-10-19T21:40:11.760Z,70.55
2022-10-19T21:42:38.999Z,70.74
2022-10-19T21:45:29.173Z,67.56
2022-10-19T21:47:57.390Z,71.45
2022-10-19T21:50:25.197Z,74.38
2022-10-19T21:52:52.343Z,73.59
2022-10-19T21:55:20.050Z,72.58
2022-10-19T21:57:47.326Z,71.87
2022-10-19T22:00:16.274Z,67.57
2022-10-19T22:02:43.672Z,67.11
2022-10-19T22:05:11.366Z,66.76
2022-10-19T22:07:41.373Z,70.25
2022-10-19T22:10:09.863Z,71.16
2022-10-19T22:12:37.712Z,73.06
2022-10-19T22:15:06.857Z,75.33
2022-10-19T22:17:35.743Z,71.75
2022-10-19T22:20:04.700Z,70.87
2022-10-19T22:22:32.030Z,70.44
2022-10-19T22:25:00.132Z,72.90
2022-10-19T22:27:27.652Z,73.82
2022-10-19T22:29:55.283Z,74.78
2022-10-19T22:32:22.682Z,75.18
2022-10-19T22:34:51.976Z,74.31
2022-10-19T22:37:19.303Z,71.40
2022-10-19T22:39:46.997Z,73.39
2022-10-19T22:42:51.342Z,74.17
2022-10-19T22:45:19.266Z,73.50
2022-10-19T22:47:47.143Z,75.27
2022-10-19T22:50:16.545Z,74.78
2022-10-19T22:52:44.505Z,77.73
2022-10-19T22:55:12.418Z,77.65
2022-10-19T22:57:39.829Z,76.73
2022-10-19T23:00:08.890Z,74.93
2022-10-19T23:02:36.402Z,75.69
2022-10-19T23:05:05.226Z,74.96
2022-10-19T23:07:34.713Z,77.14
2022-10-19T23:10:02.717Z,79.49
2022-10-19T23:12:30.212Z,78.43
2022-10-19T23:14:58.097Z,75.82
2022-10-19T23:17:25.739Z,73.49
2022-10-19T23:19:53.821Z,70.59
2022-10-19T23:22:21.334Z,71.42
2022-10-19T23:24:50.509Z,69.76
2022-10-19T23:27:17.822Z,68.52
2022-10-19T23:29:45.898Z,69.04
2022-10-19T23:32:13.306Z,71.00
2022-10-19T23:34:43.211Z,67.47
2022-10-19T23:37:13.225Z,70.25
2022-10-19T23:39:40.916Z,72.64
2022-10-19T23:42:09.699Z,74.01
2022-10-19T23:44:40.551Z,73.99
2022-10-19T23:47:08.197Z,69.28
2022-10-19T23:49:35.858Z,69.97
2022-10-19T23:52:03.336Z,70.12
2022-10-19T23:54:31.657Z,69.30
2022-10-19T23:56:58.991Z,68.96
2022-10-19T23:59:28.123Z,69.92
